Ana Sayfa
METAR-TAF:

METAR-TAF

Havaalanları :

Sanford Regional Airport

Sanford, Maine, Amerika Birleşik Devletleri

Enlem: 43-24N, Boylam: 070-43W, yükseklik: 74 m

Güncel hava durumu gözlemi

Rapor saat 12:04 UTC de 16 dakika önce yapıldı.
Rüzgar doğu/güneydoğudan 4 kt
Sıcaklık 16°C
Nem 100%
Basınç 1020 hPa
Görüş mesafesi: 1.6 km
200 ft yükseklikte çok bulutlu
hafif yağmur, Pus

METAR: KSFM 271204Z AUTO 12004KT 1SM -RA BR OVC002 16/16 A3013 RMK AO2 RVRNO PNO $

Saat: 08:20 (12:20 UTC)


TAF: eksik

4.000'den fazla havaalanı için hava durumu gözlemleri ve tahminleri (METAR ve TAF raporları).

Kullanılabilir istasyonlar harita üzerinde sarı ve kırmızı noktalarla gösterilir.

İstasyonun adını görmek için fareyi noktanın üzerinde gezdirin.

Sonrasında hava gözlem ve tahminlerini görmek için tıklayın.

Haritayı değiştirmek için: yaklaştırmak için siyah artı işaretli yeşil düğmeye ve uzaklaştırmak için de eksi işaretli düğmeye hızla tıklayın; bitişik haritalar için yeşil okları kullanın.


METAR-TAF: